sensor_id;sensor_type;location;lat;lon;timestamp;P1;durP1;ratioP1;P2;durP2;ratioP2
30466;SDS011;17258;52.560;13.046;2023-07-13T00:03:09;1.50;;;1.40;;
30466;SDS011;17258;52.560;13.046;2023-07-13T00:13:09;1.23;;;1.13;;
30466;SDS011;17258;52.560;13.046;2023-07-13T00:23:10;1.13;;;1.13;;
30466;SDS011;17258;52.560;13.046;2023-07-13T00:33:11;1.17;;;1.08;;
30466;SDS011;17258;52.560;13.046;2023-07-13T00:43:16;2.10;;;1.23;;
30466;SDS011;17258;52.560;13.046;2023-07-13T00:53:20;1.20;;;1.02;;
30466;SDS011;17258;52.560;13.046;2023-07-13T01:03:21;1.00;;;0.85;;
30466;SDS011;17258;52.560;13.046;2023-07-13T01:13:21;1.48;;;1.15;;
30466;SDS011;17258;52.560;13.046;2023-07-13T01:23:23;0.93;;;0.93;;
30466;SDS011;17258;52.560;13.046;2023-07-13T01:33:26;1.13;;;1.02;;
30466;SDS011;17258;52.560;13.046;2023-07-13T01:43:26;1.55;;;1.08;;
30466;SDS011;17258;52.560;13.046;2023-07-13T01:53:27;1.48;;;1.35;;
30466;SDS011;17258;52.560;13.046;2023-07-13T02:03:28;1.70;;;1.00;;
30466;SDS011;17258;52.560;13.046;2023-07-13T02:13:28;1.10;;;1.00;;
30466;SDS011;17258;52.560;13.046;2023-07-13T02:23:29;1.92;;;1.05;;
30466;SDS011;17258;52.560;13.046;2023-07-13T02:33:30;2.50;;;0.80;;
30466;SDS011;17258;52.560;13.046;2023-07-13T02:43:31;1.70;;;1.13;;
30466;SDS011;17258;52.560;13.046;2023-07-13T02:53:31;1.47;;;1.17;;
30466;SDS011;17258;52.560;13.046;2023-07-13T03:03:32;1.52;;;1.10;;
30466;SDS011;17258;52.560;13.046;2023-07-13T03:13:33;2.37;;;1.43;;
30466;SDS011;17258;52.560;13.046;2023-07-13T03:23:34;2.65;;;1.60;;
30466;SDS011;17258;52.560;13.046;2023-07-13T03:33:35;2.00;;;1.13;;
30466;SDS011;17258;52.560;13.046;2023-07-13T03:43:36;1.27;;;1.13;;
30466;SDS011;17258;52.560;13.046;2023-07-13T03:53:38;0.90;;;0.90;;
30466;SDS011;17258;52.560;13.046;2023-07-13T04:03:40;1.05;;;1.05;;
30466;SDS011;17258;52.560;13.046;2023-07-13T04:13:41;1.17;;;1.08;;
30466;SDS011;17258;52.560;13.046;2023-07-13T04:23:42;1.43;;;1.33;;
30466;SDS011;17258;52.560;13.046;2023-07-13T04:33:43;2.13;;;1.60;;
30466;SDS011;17258;52.560;13.046;2023-07-13T04:43:43;1.40;;;1.27;;
30466;SDS011;17258;52.560;13.046;2023-07-13T04:53:44;2.00;;;1.80;;
30466;SDS011;17258;52.560;13.046;2023-07-13T05:03:45;2.60;;;1.30;;
30466;SDS011;17258;52.560;13.046;2023-07-13T05:13:45;3.50;;;1.70;;
30466;SDS011;17258;52.560;13.046;2023-07-13T05:23:46;1.87;;;1.30;;
30466;SDS011;17258;52.560;13.046;2023-07-13T05:33:47;2.08;;;1.40;;
30466;SDS011;17258;52.560;13.046;2023-07-13T05:43:48;3.00;;;1.40;;
30466;SDS011;17258;52.560;13.046;2023-07-13T05:53:48;2.90;;;1.33;;
30466;SDS011;17258;52.560;13.046;2023-07-13T06:03:49;5.63;;;1.60;;
30466;SDS011;17258;52.560;13.046;2023-07-13T06:13:50;18.02;;;3.25;;
30466;SDS011;17258;52.560;13.046;2023-07-13T06:23:52;7.95;;;7.30;;
30466;SDS011;17258;52.560;13.046;2023-07-13T06:33:52;7.78;;;7.15;;
30466;SDS011;17258;52.560;13.046;2023-07-13T06:43:53;1.50;;;1.40;;
30466;SDS011;17258;52.560;13.046;2023-07-13T06:53:54;8.97;;;8.47;;
30466;SDS011;17258;52.560;13.046;2023-07-13T07:03:55;6.95;;;6.45;;
30466;SDS011;17258;52.560;13.046;2023-07-13T07:13:56;9.50;;;8.90;;
30466;SDS011;17258;52.560;13.046;2023-07-13T07:23:57;12.80;;;12.10;;
30466;SDS011;17258;52.560;13.046;2023-07-13T07:33:59;13.60;;;12.90;;
30466;SDS011;17258;52.560;13.046;2023-07-13T07:44:00;13.83;;;12.90;;
30466;SDS011;17258;52.560;13.046;2023-07-13T07:54:01;14.40;;;13.60;;
30466;SDS011;17258;52.560;13.046;2023-07-13T08:04:01;14.23;;;13.43;;
30466;SDS011;17258;52.560;13.046;2023-07-13T08:14:02;14.10;;;13.33;;
30466;SDS011;17258;52.560;13.046;2023-07-13T08:24:03;7.30;;;6.80;;
30466;SDS011;17258;52.560;13.046;2023-07-13T08:34:04;10.80;;;10.20;;
30466;SDS011;17258;52.560;13.046;2023-07-13T08:44:05;9.63;;;9.13;;
30466;SDS011;17258;52.560;13.046;2023-07-13T09:04:33;15.40;;;13.93;;
30466;SDS011;17258;52.560;13.046;2023-07-13T09:14:47;14.82;;;14.02;;
30466;SDS011;17258;52.560;13.046;2023-07-13T09:24:55;15.15;;;14.25;;
30466;SDS011;17258;52.560;13.046;2023-07-13T09:35:12;15.90;;;14.80;;
30466;SDS011;17258;52.560;13.046;2023-07-13T09:45:28;15.57;;;14.68;;
30466;SDS011;17258;52.560;13.046;2023-07-13T09:55:34;15.30;;;14.38;;
30466;SDS011;17258;52.560;13.046;2023-07-13T10:05:38;15.93;;;15.02;;
30466;SDS011;17258;52.560;13.046;2023-07-13T10:15:42;14.82;;;13.98;;
30466;SDS011;17258;52.560;13.046;2023-07-13T10:25:43;16.17;;;15.07;;
30466;SDS011;17258;52.560;13.046;2023-07-13T10:35:47;15.43;;;14.52;;
30466;SDS011;17258;52.560;13.046;2023-07-13T10:45:50;15.40;;;14.50;;
30466;SDS011;17258;52.560;13.046;2023-07-13T10:55:55;15.02;;;14.23;;
30466;SDS011;17258;52.560;13.046;2023-07-13T11:16:42;15.57;;;14.68;;
30466;SDS011;17258;52.560;13.046;2023-07-13T11:36:45;15.35;;;14.48;;
30466;SDS011;17258;52.560;13.046;2023-07-13T11:46:49;14.90;;;14.10;;
30466;SDS011;17258;52.560;13.046;2023-07-13T11:56:54;15.65;;;14.75;;
30466;SDS011;17258;52.560;13.046;2023-07-13T12:07:04;14.85;;;13.88;;
30466;SDS011;17258;52.560;13.046;2023-07-13T12:17:21;16.70;;;15.68;;
30466;SDS011;17258;52.560;13.046;2023-07-13T12:27:25;15.07;;;14.25;;
30466;SDS011;17258;52.560;13.046;2023-07-13T12:37:28;15.98;;;14.90;;
30466;SDS011;17258;52.560;13.046;2023-07-13T12:47:38;16.17;;;15.07;;
30466;SDS011;17258;52.560;13.046;2023-07-13T12:57:50;13.57;;;12.88;;
30466;SDS011;17258;52.560;13.046;2023-07-13T13:07:53;11.10;;;10.40;;
30466;SDS011;17258;52.560;13.046;2023-07-13T13:17:54;11.20;;;10.50;;
30466;SDS011;17258;52.560;13.046;2023-07-13T13:27:55;8.87;;;8.03;;
30466;SDS011;17258;52.560;13.046;2023-07-13T13:37:56;10.30;;;9.80;;
30466;SDS011;17258;52.560;13.046;2023-07-13T13:47:57;10.43;;;9.83;;
30466;SDS011;17258;52.560;13.046;2023-07-13T13:57:57;12.30;;;11.43;;
30466;SDS011;17258;52.560;13.046;2023-07-13T14:07:58;12.00;;;11.30;;
30466;SDS011;17258;52.560;13.046;2023-07-13T14:17:59;11.52;;;10.73;;
30466;SDS011;17258;52.560;13.046;2023-07-13T14:28:04;11.27;;;10.77;;
30466;SDS011;17258;52.560;13.046;2023-07-13T14:38:21;10.30;;;9.80;;
30466;SDS011;17258;52.560;13.046;2023-07-13T14:48:22;2.55;;;1.60;;
30466;SDS011;17258;52.560;13.046;2023-07-13T14:58:24;0.93;;;0.60;;
30466;SDS011;17258;52.560;13.046;2023-07-13T15:08:24;1.50;;;1.00;;
30466;SDS011;17258;52.560;13.046;2023-07-13T15:18:25;16.70;;;15.70;;
30466;SDS011;17258;52.560;13.046;2023-07-13T15:28:27;16.08;;;15.18;;
30466;SDS011;17258;52.560;13.046;2023-07-13T15:38:29;13.52;;;11.55;;
30466;SDS011;17258;52.560;13.046;2023-07-13T15:48:31;16.42;;;15.52;;
30466;SDS011;17258;52.560;13.046;2023-07-13T15:58:32;16.10;;;15.03;;
30466;SDS011;17258;52.560;13.046;2023-07-13T16:08:32;16.40;;;14.93;;
30466;SDS011;17258;52.560;13.046;2023-07-13T16:18:33;14.73;;;13.82;;
30466;SDS011;17258;52.560;13.046;2023-07-13T16:28:34;5.43;;;2.60;;
30466;SDS011;17258;52.560;13.046;2023-07-13T16:38:34;1.37;;;1.27;;
30466;SDS011;17258;52.560;13.046;2023-07-13T16:48:35;4.43;;;1.73;;
30466;SDS011;17258;52.560;13.046;2023-07-13T16:58:35;1.43;;;1.10;;
30466;SDS011;17258;52.560;13.046;2023-07-13T17:08:36;1.10;;;1.00;;
30466;SDS011;17258;52.560;13.046;2023-07-13T17:18:37;1.90;;;1.10;;
30466;SDS011;17258;52.560;13.046;2023-07-13T17:28:38;1.50;;;0.93;;
30466;SDS011;17258;52.560;13.046;2023-07-13T17:38:42;0.80;;;0.80;;
30466;SDS011;17258;52.560;13.046;2023-07-13T17:48:54;1.10;;;1.02;;
30466;SDS011;17258;52.560;13.046;2023-07-13T17:58:55;1.08;;;0.98;;
30466;SDS011;17258;52.560;13.046;2023-07-13T18:08:56;7.17;;;6.87;;
30466;SDS011;17258;52.560;13.046;2023-07-13T18:18:59;2.40;;;2.30;;
30466;SDS011;17258;52.560;13.046;2023-07-13T18:29:01;1.67;;;1.60;;
30466;SDS011;17258;52.560;13.046;2023-07-13T18:39:04;0.90;;;0.90;;
30466;SDS011;17258;52.560;13.046;2023-07-13T18:49:09;1.17;;;0.90;;
30466;SDS011;17258;52.560;13.046;2023-07-13T18:59:13;1.40;;;0.95;;
30466;SDS011;17258;52.560;13.046;2023-07-13T19:09:14;1.27;;;0.90;;
30466;SDS011;17258;52.560;13.046;2023-07-13T19:19:15;2.43;;;0.90;;
30466;SDS011;17258;52.560;13.046;2023-07-13T19:29:21;1.30;;;0.90;;
30466;SDS011;17258;52.560;13.046;2023-07-13T19:39:27;1.33;;;1.10;;
30466;SDS011;17258;52.560;13.046;2023-07-13T19:49:31;1.65;;;1.20;;
30466;SDS011;17258;52.560;13.046;2023-07-13T19:59:32;1.40;;;1.03;;
30466;SDS011;17258;52.560;13.046;2023-07-13T20:09:33;3.25;;;1.08;;
30466;SDS011;17258;52.560;13.046;2023-07-13T20:19:34;1.58;;;1.10;;
30466;SDS011;17258;52.560;13.046;2023-07-13T20:29:35;1.10;;;1.00;;
30466;SDS011;17258;52.560;13.046;2023-07-13T20:39:36;1.00;;;1.00;;
30466;SDS011;17258;52.560;13.046;2023-07-13T20:49:37;1.70;;;1.27;;
30466;SDS011;17258;52.560;13.046;2023-07-13T20:59:38;1.55;;;1.45;;
30466;SDS011;17258;52.560;13.046;2023-07-13T21:09:40;1.67;;;1.42;;
30466;SDS011;17258;52.560;13.046;2023-07-13T21:19:41;1.93;;;1.73;;
30466;SDS011;17258;52.560;13.046;2023-07-13T21:29:43;2.22;;;1.55;;
30466;SDS011;17258;52.560;13.046;2023-07-13T21:39:47;1.67;;;1.50;;
30466;SDS011;17258;52.560;13.046;2023-07-13T21:49:51;1.42;;;1.33;;
30466;SDS011;17258;52.560;13.046;2023-07-13T21:59:51;2.17;;;1.23;;
30466;SDS011;17258;52.560;13.046;2023-07-13T22:09:52;3.43;;;1.53;;
30466;SDS011;17258;52.560;13.046;2023-07-13T22:19:53;1.10;;;0.90;;
30466;SDS011;17258;52.560;13.046;2023-07-13T22:29:53;0.97;;;0.97;;
30466;SDS011;17258;52.560;13.046;2023-07-13T22:39:54;1.37;;;0.90;;
30466;SDS011;17258;52.560;13.046;2023-07-13T22:49:55;1.47;;;1.07;;
30466;SDS011;17258;52.560;13.046;2023-07-13T22:59:55;1.30;;;1.17;;
30466;SDS011;17258;52.560;13.046;2023-07-13T23:09:56;3.20;;;1.30;;
30466;SDS011;17258;52.560;13.046;2023-07-13T23:19:56;1.20;;;1.10;;
30466;SDS011;17258;52.560;13.046;2023-07-13T23:29:57;1.20;;;1.10;;
30466;SDS011;17258;52.560;13.046;2023-07-13T23:39:58;1.60;;;1.00;;
30466;SDS011;17258;52.560;13.046;2023-07-13T23:49:58;1.17;;;1.07;;
